Overview Statistics Trail Chart Weather Telemetry Raw packets
 

This is the latest recevied weather packets stored in our database for station/object HS1AXC-1. If no packets are shown the sender has not sent any weather packets the latest 10 day(s).

<< 4 5 6 7 8 9 10 >>
Time Temp. Humidity Pressure Rain* Wind** Luminosity Snow
1788594254 22.22° C 68% 673 hPa - - 1 W/m² -
1788593632 38.89° C 46% 1006 hPa - - 1 W/m² -
1788593010 38.89° C 45% 1007 hPa - - 2 W/m² -
1788592388 38.89° C 45% 1007 hPa - - 2 W/m² -
1788591768 38.33° C 46% 1007 hPa - - 2 W/m² -
1788591144 38.33° C 46% 1007 hPa - - 1 W/m² -
1788590522 38.89° C 45% 1007 hPa - - 3 W/m² -
1788589659 38.33° C 48% 1008 hPa - - 1 W/m² -
1788589192 38.33° C 48% 1008 hPa - - 2 W/m² -
1788588570 38.33° C 47% 1008 hPa - - 2 W/m² -
1788587948 38.33° C 49% 1008 hPa - - 2 W/m² -
1788587555 37.78° C 49% 1009 hPa - - 2 W/m² -
1788586933 38.33° C 50% 1009 hPa - - 3 W/m² -
1788586311 37.78° C 50% 1009 hPa - - 2 W/m² -
1788585689 37.22° C 51% 1009 hPa - - 2 W/m² -
1788585067 37.22° C 50% 1010 hPa - - 2 W/m² -
1788584445 37.22° C 52% 1010 hPa - - 2 W/m² -
1788583823 37.22° C 51% 1010 hPa - - 2 W/m² -
1788583201 37.22° C 51% 1010 hPa - - 3 W/m² -
1788582579 37.22° C 52% 1010 hPa - - 3 W/m² -
1788581957 36.67° C 52% 1010 hPa - - 2 W/m² -
1788581337 36.67° C 53% 1010 hPa - - 2 W/m² -
1788580713 37.22° C 53% 1011 hPa - - 2 W/m² -
1788580091 36.67° C 54% 1011 hPa - - 2 W/m² -
1788579469 36.67° C 55% 1011 hPa - - 3 W/m² -

* Rain since midnight (hover to see other rain measurements)
** Current wind speed in m/s (hover to see current wind gust speed)